createdAt,value
2022-09-16T00:00:49.046Z,19.10
2022-09-16T00:01:49.085Z,19.90
2022-09-16T00:02:48.999Z,18.20
2022-09-16T00:03:48.952Z,18.80
2022-09-16T00:04:48.942Z,18.40
2022-09-16T00:05:48.927Z,16.30
2022-09-16T00:06:48.923Z,18.20
2022-09-16T00:07:48.945Z,17.80
2022-09-16T00:08:48.996Z,17.70
2022-09-16T00:09:48.881Z,19.70
2022-09-16T00:10:48.886Z,20.20
2022-09-16T00:11:48.865Z,18.00
2022-09-16T00:12:48.860Z,17.40
2022-09-16T00:13:48.880Z,18.70
2022-09-16T00:14:48.850Z,17.40
2022-09-16T00:15:48.816Z,18.80
2022-09-16T00:16:48.801Z,16.00
2022-09-16T00:17:48.829Z,19.10
2022-09-16T00:18:48.801Z,16.40
2022-09-16T00:19:48.776Z,16.50
2022-09-16T00:20:48.755Z,23.20
2022-09-16T00:21:48.755Z,20.40
2022-09-16T00:22:48.740Z,17.70
2022-09-16T00:23:48.747Z,17.20
2022-09-16T00:24:48.737Z,16.20
2022-09-16T00:25:48.714Z,17.30
2022-09-16T00:26:48.759Z,18.30
2022-09-16T00:27:48.699Z,18.90
2022-09-16T00:28:48.680Z,19.80
2022-09-16T00:29:48.673Z,19.40
2022-09-16T00:30:48.683Z,19.50
2022-09-16T00:31:49.342Z,16.70
2022-09-16T00:32:48.664Z,18.00
2022-09-16T00:33:48.636Z,19.00
2022-09-16T00:34:48.619Z,17.80
2022-09-16T00:35:48.592Z,17.70
2022-09-16T00:36:48.619Z,16.00
2022-09-16T00:37:48.594Z,18.70
2022-09-16T00:38:48.562Z,19.00
2022-09-16T00:39:48.662Z,19.10
2022-09-16T00:40:48.559Z,17.50
2022-09-16T00:41:48.554Z,19.20
2022-09-16T00:42:48.523Z,18.60
2022-09-16T00:43:48.536Z,17.00
2022-09-16T00:44:48.511Z,17.70
2022-09-16T00:45:48.487Z,18.00
2022-09-16T00:46:48.542Z,19.70
2022-09-16T00:47:48.470Z,19.20
2022-09-16T00:48:48.470Z,23.30
2022-09-16T00:49:48.495Z,23.00
2022-09-16T00:50:48.426Z,23.00
2022-09-16T00:51:48.425Z,20.60
2022-09-16T00:52:48.423Z,20.20
2022-09-16T00:53:48.397Z,20.30
2022-09-16T00:54:48.440Z,19.00
2022-09-16T00:55:48.374Z,18.40
2022-09-16T00:56:48.374Z,18.40
2022-09-16T00:57:48.370Z,16.30
2022-09-16T00:58:48.338Z,17.30
2022-09-16T00:59:48.345Z,16.50
2022-09-16T01:00:48.346Z,17.00
2022-09-16T01:01:48.377Z,16.00
2022-09-16T01:02:48.320Z,17.40
2022-09-16T01:03:48.297Z,16.30
2022-09-16T01:04:48.276Z,16.60
2022-09-16T01:05:48.279Z,17.80
2022-09-16T01:06:48.291Z,18.10
2022-09-16T01:07:48.238Z,20.00
2022-09-16T01:08:48.269Z,19.50
2022-09-16T01:09:48.240Z,20.50
2022-09-16T01:10:48.248Z,21.60
2022-09-16T01:11:48.187Z,17.40
2022-09-16T01:12:48.188Z,17.60
2022-09-16T01:13:48.175Z,16.70
2022-09-16T01:14:48.163Z,17.50
2022-09-16T01:15:48.165Z,17.10
2022-09-16T01:16:48.154Z,16.70
2022-09-16T01:17:48.121Z,18.10
2022-09-16T01:18:48.125Z,19.00
2022-09-16T01:19:48.132Z,16.20
2022-09-16T01:20:48.115Z,16.70
2022-09-16T01:21:48.118Z,20.40
2022-09-16T01:22:48.088Z,18.50
2022-09-16T01:23:48.116Z,20.80
2022-09-16T01:24:48.046Z,19.10
2022-09-16T01:25:48.046Z,18.60
2022-09-16T01:26:48.053Z,18.50
2022-09-16T01:27:48.025Z,17.30
2022-09-16T01:28:47.995Z,17.60
2022-09-16T01:29:47.994Z,19.70
2022-09-16T01:30:47.989Z,19.60
2022-09-16T01:31:48.028Z,19.40
2022-09-16T01:32:47.958Z,18.20
2022-09-16T01:33:47.965Z,20.30
2022-09-16T01:34:47.969Z,17.70
2022-09-16T01:35:47.934Z,19.40
2022-09-16T01:36:47.921Z,19.10
2022-09-16T01:37:47.918Z,22.10
2022-09-16T01:38:47.921Z,17.50
2022-09-16T01:39:47.978Z,20.40
2022-09-16T01:40:47.896Z,19.90
2022-09-16T01:41:47.872Z,18.40
2022-09-16T01:42:47.842Z,18.50
2022-09-16T01:43:47.828Z,20.00
2022-09-16T01:44:47.837Z,20.40
2022-09-16T01:45:47.827Z,18.70
2022-09-16T01:46:47.941Z,17.30
2022-09-16T01:47:47.789Z,20.90
2022-09-16T01:48:53.016Z,21.10
2022-09-16T01:49:48.785Z,17.40
2022-09-16T01:50:47.775Z,17.70
2022-09-16T01:51:47.780Z,18.30
2022-09-16T01:52:47.724Z,17.10
2022-09-16T01:53:47.749Z,16.40
2022-09-16T01:54:47.701Z,17.10
2022-09-16T01:55:47.703Z,20.70
2022-09-16T01:56:47.710Z,16.70
2022-09-16T01:57:47.679Z,17.40
2022-09-16T01:58:47.663Z,19.00
2022-09-16T01:59:47.657Z,17.20
2022-09-16T02:00:47.674Z,18.90
2022-09-16T02:01:47.780Z,18.90
2022-09-16T02:02:47.684Z,18.10
2022-09-16T02:03:47.646Z,18.90
2022-09-16T02:04:47.598Z,19.10
2022-09-16T02:05:47.599Z,19.90
2022-09-16T02:06:47.574Z,17.10
2022-09-16T02:07:47.569Z,23.70
2022-09-16T02:08:47.603Z,19.10
2022-09-16T02:09:47.555Z,18.50
2022-09-16T02:10:47.538Z,19.20
2022-09-16T02:11:47.542Z,17.90
2022-09-16T02:12:47.514Z,17.50
2022-09-16T02:13:47.521Z,16.60
2022-09-16T02:14:47.494Z,16.80
2022-09-16T02:15:47.486Z,17.80
2022-09-16T02:16:47.477Z,20.40
2022-09-16T02:17:47.484Z,17.00
2022-09-16T02:18:47.450Z,19.70
2022-09-16T02:19:47.422Z,18.70
2022-09-16T02:20:47.424Z,20.00
2022-09-16T02:21:47.408Z,20.40
2022-09-16T02:22:47.421Z,21.50
2022-09-16T02:23:47.445Z,19.60
2022-09-16T02:24:47.378Z,19.40
2022-09-16T02:25:47.392Z,20.70
2022-09-16T02:26:47.341Z,19.50
2022-09-16T02:27:47.347Z,19.50
2022-09-16T02:28:47.318Z,20.60
2022-09-16T02:29:47.326Z,20.30
2022-09-16T02:30:47.328Z,19.50
2022-09-16T02:31:47.296Z,20.40
2022-09-16T02:32:47.280Z,19.50
2022-09-16T02:33:47.273Z,20.60
2022-09-16T02:34:47.293Z,20.60
2022-09-16T02:35:47.285Z,19.20
2022-09-16T02:36:47.233Z,18.50
2022-09-16T02:37:47.241Z,21.30
2022-09-16T02:38:47.287Z,20.30
2022-09-16T02:39:47.245Z,22.90
2022-09-16T02:40:47.191Z,21.60
2022-09-16T02:41:47.188Z,18.30
2022-09-16T02:42:47.168Z,19.70
2022-09-16T02:43:47.151Z,20.40
2022-09-16T02:44:47.162Z,18.80
2022-09-16T02:45:47.126Z,20.40
2022-09-16T02:46:47.273Z,18.70
2022-09-16T02:47:47.136Z,18.10
2022-09-16T02:48:47.105Z,19.60
2022-09-16T02:49:47.089Z,20.70
2022-09-16T02:50:47.102Z,23.00
2022-09-16T02:51:47.062Z,20.90
2022-09-16T02:52:47.158Z,18.60
2022-09-16T02:53:47.141Z,22.30
2022-09-16T02:54:47.026Z,18.30
2022-09-16T02:55:47.032Z,22.80
2022-09-16T02:56:47.000Z,21.60
2022-09-16T02:57:47.019Z,22.60
2022-09-16T02:58:47.008Z,20.80
2022-09-16T02:59:46.983Z,20.90
2022-09-16T03:00:46.962Z,19.10
2022-09-16T03:01:47.071Z,21.00
2022-09-16T03:02:46.976Z,19.80
2022-09-16T03:03:46.943Z,23.30
2022-09-16T03:04:46.933Z,19.80
2022-09-16T03:05:46.919Z,20.10
2022-09-16T03:06:46.899Z,22.20
2022-09-16T03:07:46.896Z,19.90
2022-09-16T03:08:46.908Z,21.30
2022-09-16T03:09:46.911Z,22.70
2022-09-16T03:10:46.848Z,18.50
2022-09-16T03:11:46.845Z,20.90
2022-09-16T03:12:46.827Z,19.80
2022-09-16T03:13:46.828Z,19.20
2022-09-16T03:14:46.801Z,19.90
2022-09-16T03:15:46.947Z,20.40
2022-09-16T03:16:46.808Z,22.30
2022-09-16T03:17:46.773Z,18.40
2022-09-16T03:18:46.778Z,20.80
2022-09-16T03:19:46.744Z,19.30
2022-09-16T03:20:46.747Z,18.40
2022-09-16T03:21:46.723Z,19.20
2022-09-16T03:22:46.727Z,20.10
2022-09-16T03:23:46.773Z,20.50
2022-09-16T03:24:46.721Z,19.20
2022-09-16T03:25:46.690Z,21.00
2022-09-16T03:26:46.673Z,22.10
2022-09-16T03:27:46.657Z,17.90
2022-09-16T03:28:46.643Z,22.10
2022-09-16T03:29:46.663Z,20.90
2022-09-16T03:30:46.669Z,21.30
2022-09-16T03:31:46.617Z,18.30
2022-09-16T03:32:46.624Z,20.80
2022-09-16T03:33:46.588Z,21.70
2022-09-16T03:34:46.590Z,21.00
2022-09-16T03:35:46.582Z,23.10
2022-09-16T03:36:46.554Z,19.60
2022-09-16T03:37:46.561Z,21.70
2022-09-16T03:38:46.656Z,25.90
2022-09-16T03:39:46.571Z,18.40
2022-09-16T03:40:46.521Z,21.80
2022-09-16T03:41:46.494Z,19.60
2022-09-16T03:42:46.502Z,20.90
2022-09-16T03:43:46.494Z,20.20
2022-09-16T03:44:46.492Z,21.60
2022-09-16T03:45:46.469Z,20.10
2022-09-16T03:46:46.448Z,20.00
2022-09-16T03:47:46.466Z,21.60
2022-09-16T03:48:46.428Z,20.60
2022-09-16T03:49:46.435Z,18.90
2022-09-16T03:50:46.425Z,19.30
2022-09-16T03:51:46.391Z,22.60
2022-09-16T03:52:46.384Z,20.30
2022-09-16T03:53:46.359Z,19.70
2022-09-16T03:54:46.364Z,21.30
2022-09-16T03:55:46.371Z,18.90
2022-09-16T03:56:46.334Z,20.40
2022-09-16T03:57:46.331Z,17.90
2022-09-16T03:58:46.303Z,19.70
2022-09-16T03:59:46.296Z,20.30
2022-09-16T04:00:46.309Z,19.00
2022-09-16T04:01:46.346Z,18.20
2022-09-16T04:02:46.315Z,19.90
2022-09-16T04:03:46.278Z,16.10
2022-09-16T04:04:46.235Z,18.80
2022-09-16T04:05:46.236Z,20.20
2022-09-16T04:06:46.242Z,18.30
2022-09-16T04:07:46.217Z,17.60
2022-09-16T04:08:46.202Z,19.30
2022-09-16T04:09:46.206Z,19.80
2022-09-16T04:10:46.168Z,20.30
2022-09-16T04:11:46.173Z,19.80
2022-09-16T04:12:46.149Z,19.20
2022-09-16T04:13:46.133Z,19.20
2022-09-16T04:14:46.128Z,17.60
2022-09-16T04:15:46.221Z,18.30
2022-09-16T04:16:46.105Z,21.40
2022-09-16T04:17:46.126Z,23.10
2022-09-16T04:18:46.111Z,19.20
2022-09-16T04:19:46.076Z,15.90
2022-09-16T04:20:46.068Z,16.90
2022-09-16T04:21:46.046Z,17.10
2022-09-16T04:22:46.044Z,18.30
2022-09-16T04:23:46.056Z,21.30
2022-09-16T04:24:46.010Z,20.10
2022-09-16T04:25:46.013Z,19.20
2022-09-16T04:26:46.011Z,21.50
2022-09-16T04:27:45.980Z,18.50
2022-09-16T04:28:45.980Z,19.50
2022-09-16T04:29:45.989Z,20.10
2022-09-16T04:30:45.979Z,21.90
2022-09-16T04:31:45.940Z,19.20
2022-09-16T04:32:45.963Z,20.10
2022-09-16T04:33:45.933Z,18.40
2022-09-16T04:34:45.917Z,17.80
2022-09-16T04:35:45.918Z,17.00
2022-09-16T04:36:45.925Z,18.80
2022-09-16T04:37:45.879Z,17.70
2022-09-16T04:38:46.005Z,18.00
2022-09-16T04:39:45.853Z,18.90
2022-09-16T04:40:45.853Z,18.20
2022-09-16T04:41:45.818Z,20.60
2022-09-16T04:42:45.824Z,16.70
2022-09-16T04:43:45.813Z,18.30
2022-09-16T04:44:45.786Z,18.10
2022-09-16T04:45:45.779Z,20.60
2022-09-16T04:46:45.798Z,19.30
2022-09-16T04:47:45.767Z,20.50
2022-09-16T04:48:45.751Z,22.60
2022-09-16T04:49:45.748Z,20.50
2022-09-16T04:50:45.735Z,20.50
2022-09-16T04:51:45.719Z,21.10
2022-09-16T04:52:45.730Z,22.00
2022-09-16T04:53:45.693Z,20.10
2022-09-16T04:54:45.688Z,19.20
2022-09-16T04:55:45.704Z,18.30
2022-09-16T04:56:45.673Z,17.80
2022-09-16T04:57:45.656Z,18.70
2022-09-16T04:58:45.672Z,19.50
2022-09-16T04:59:45.642Z,20.20
2022-09-16T05:00:45.640Z,21.00
2022-09-16T05:01:46.454Z,20.40
2022-09-16T05:02:45.600Z,18.40
2022-09-16T05:03:45.736Z,18.80
2022-09-16T05:04:45.569Z,18.00
2022-09-16T05:05:45.602Z,21.90
2022-09-16T05:06:45.568Z,16.70
2022-09-16T05:07:45.532Z,17.80
2022-09-16T05:08:45.526Z,20.10
2022-09-16T05:09:45.511Z,17.50
2022-09-16T05:10:45.503Z,19.30
2022-09-16T05:11:45.518Z,17.70
2022-09-16T05:12:49.322Z,18.70
2022-09-16T05:13:45.471Z,18.00
2022-09-16T05:14:45.462Z,17.30
2022-09-16T05:15:50.289Z,17.50
2022-09-16T05:16:46.457Z,17.70
2022-09-16T05:17:51.260Z,16.30
2022-09-16T05:18:46.435Z,15.60
2022-09-16T05:19:45.409Z,18.10
2022-09-16T05:20:45.409Z,18.50
2022-09-16T05:21:45.501Z,18.20
2022-09-16T05:22:45.387Z,17.70
2022-09-16T05:23:47.015Z,18.10
2022-09-16T05:24:45.357Z,18.00
2022-09-16T05:25:45.347Z,18.50
2022-09-16T05:26:45.344Z,15.70
2022-09-16T05:27:45.349Z,17.40
2022-09-16T05:28:45.309Z,16.60
2022-09-16T05:29:45.316Z,17.10
2022-09-16T05:30:45.368Z,16.30
2022-09-16T05:31:45.291Z,16.70
2022-09-16T05:32:45.294Z,16.10
2022-09-16T05:33:45.252Z,17.20
2022-09-16T05:34:45.254Z,18.10
2022-09-16T05:35:45.258Z,16.10
2022-09-16T05:36:45.220Z,15.60
2022-09-16T05:37:45.316Z,16.20
2022-09-16T05:39:04.636Z,16.40
2022-09-16T05:39:46.174Z,17.60
2022-09-16T05:40:45.163Z,20.00
2022-09-16T05:41:45.159Z,15.80
2022-09-16T05:42:45.157Z,16.30
2022-09-16T05:43:45.164Z,15.00
2022-09-16T05:44:53.100Z,14.00
2022-09-16T05:45:45.159Z,15.30
2022-09-16T05:46:45.096Z,14.50
2022-09-16T05:47:45.097Z,17.60
2022-09-16T05:48:45.087Z,14.30
2022-09-16T05:49:45.093Z,15.30
2022-09-16T05:50:45.074Z,15.70
2022-09-16T05:51:45.080Z,16.40
2022-09-16T05:52:45.028Z,15.00
2022-09-16T05:53:45.139Z,15.10
2022-09-16T05:54:45.028Z,14.30
2022-09-16T05:55:44.994Z,15.10
2022-09-16T05:56:45.039Z,15.90
2022-09-16T05:57:44.973Z,15.10
2022-09-16T05:58:44.961Z,13.90
2022-09-16T05:59:44.967Z,14.40
2022-09-16T06:00:44.961Z,15.20
2022-09-16T06:01:45.034Z,14.80
2022-09-16T06:02:45.015Z,16.20
2022-09-16T06:03:44.909Z,15.80
2022-09-16T06:04:44.899Z,15.30
2022-09-16T06:05:45.920Z,14.90
2022-09-16T06:06:44.872Z,14.90
2022-09-16T06:07:44.872Z,14.40
2022-09-16T06:08:44.855Z,14.50
2022-09-16T06:09:44.950Z,14.10
2022-09-16T06:10:44.846Z,14.70
2022-09-16T06:11:44.848Z,14.70
2022-09-16T06:12:44.804Z,13.60
2022-09-16T06:13:44.799Z,13.90
2022-09-16T06:14:44.782Z,14.30
2022-09-16T06:15:44.820Z,15.70
2022-09-16T06:16:44.802Z,14.20
2022-09-16T06:17:44.748Z,15.80
2022-09-16T06:18:44.795Z,16.30
2022-09-16T06:19:44.752Z,15.20
2022-09-16T06:20:44.715Z,16.60
2022-09-16T06:21:44.710Z,18.50
2022-09-16T06:22:44.718Z,14.80
2022-09-16T06:23:44.682Z,14.80
2022-09-16T06:24:44.688Z,15.20
2022-09-16T06:25:44.767Z,15.50
2022-09-16T06:26:44.647Z,15.80
2022-09-16T06:27:44.651Z,15.10
2022-09-16T06:28:44.641Z,15.20
2022-09-16T06:29:44.624Z,15.20
2022-09-16T06:30:44.687Z,15.10
2022-09-16T06:31:44.614Z,17.30
2022-09-16T06:32:44.581Z,16.10
2022-09-16T06:33:44.639Z,15.70
2022-09-16T06:34:44.592Z,15.70
2022-09-16T06:35:44.563Z,19.10
2022-09-16T06:36:45.635Z,16.50
2022-09-16T06:37:44.559Z,16.50
2022-09-16T06:38:44.519Z,14.80
2022-09-16T06:39:44.518Z,16.40
2022-09-16T06:40:44.496Z,15.50
2022-09-16T06:41:44.621Z,14.30
2022-09-16T06:42:44.508Z,17.80
2022-09-16T06:43:44.456Z,16.30
2022-09-16T06:44:44.456Z,15.60
2022-09-16T06:45:44.510Z,15.30
2022-09-16T06:46:44.434Z,16.10
2022-09-16T06:47:44.433Z,15.20
2022-09-16T06:48:44.471Z,13.70
2022-09-16T06:49:44.390Z,14.00
2022-09-16T06:50:44.400Z,17.20
2022-09-16T06:51:44.391Z,17.20
2022-09-16T06:52:44.402Z,16.50
2022-09-16T06:53:44.372Z,15.20
2022-09-16T06:54:44.334Z,13.90
2022-09-16T06:55:44.328Z,14.90
2022-09-16T06:56:44.317Z,14.00
2022-09-16T06:57:44.416Z,14.70
2022-09-16T06:58:44.302Z,15.40
2022-09-16T06:59:44.275Z,14.00
2022-09-16T07:00:44.269Z,13.90
2022-09-16T07:01:44.302Z,15.00
2022-09-16T07:02:44.377Z,15.20
2022-09-16T07:03:44.262Z,18.10
2022-09-16T07:04:44.245Z,14.40
2022-09-16T07:05:44.207Z,14.90
2022-09-16T07:07:08.262Z,15.70
2022-09-16T07:07:45.233Z,15.00
2022-09-16T07:08:44.204Z,15.60
2022-09-16T07:09:44.184Z,16.20
2022-09-16T07:10:44.185Z,16.20
2022-09-16T07:11:44.146Z,14.70
2022-09-16T07:12:44.145Z,15.70
2022-09-16T07:13:44.314Z,15.00
2022-09-16T07:14:44.117Z,15.40
2022-09-16T07:16:02.600Z,17.10
2022-09-16T07:16:45.191Z,16.40
2022-09-16T07:17:44.075Z,17.20
2022-09-16T07:18:44.079Z,16.30
2022-09-16T07:19:44.083Z,16.30
2022-09-16T07:20:44.047Z,18.30
2022-09-16T07:21:44.056Z,15.30
2022-09-16T07:22:44.015Z,16.00
2022-09-16T07:23:44.019Z,16.30
2022-09-16T07:24:44.028Z,15.30
2022-09-16T07:25:43.980Z,14.70
2022-09-16T07:26:43.987Z,15.10
2022-09-16T07:27:43.957Z,16.60
2022-09-16T07:28:44.023Z,14.90
2022-09-16T07:29:44.067Z,17.10
2022-09-16T07:30:44.017Z,15.60
2022-09-16T07:31:43.952Z,17.40
2022-09-16T07:32:43.919Z,16.40
2022-09-16T07:33:43.985Z,14.40
2022-09-16T07:34:43.888Z,16.20
2022-09-16T07:35:43.886Z,20.40
2022-09-16T07:36:43.890Z,19.00
2022-09-16T07:37:43.882Z,16.50
2022-09-16T07:38:43.949Z,14.70
2022-09-16T07:39:43.976Z,15.40
2022-09-16T07:40:43.821Z,15.90
2022-09-16T07:41:43.830Z,15.20
2022-09-16T07:42:43.804Z,15.20
2022-09-16T07:43:43.877Z,15.30
2022-09-16T07:44:43.768Z,14.70
2022-09-16T07:45:43.893Z,15.50
2022-09-16T07:46:43.763Z,16.20
2022-09-16T07:47:43.749Z,17.20
2022-09-16T07:48:43.779Z,15.70
2022-09-16T07:49:43.742Z,14.20
2022-09-16T07:50:43.697Z,16.20
2022-09-16T07:51:43.749Z,16.10
2022-09-16T07:53:43.729Z,17.70
2022-09-16T07:54:43.664Z,17.70
2022-09-16T07:55:43.673Z,16.00
2022-09-16T07:56:43.628Z,16.40
2022-09-16T07:57:43.633Z,14.70
2022-09-16T07:58:43.622Z,16.30
2022-09-16T07:59:43.629Z,16.60
2022-09-16T08:00:43.595Z,16.20
2022-09-16T08:01:43.937Z,17.10
2022-09-16T08:02:43.652Z,14.70
2022-09-16T08:03:43.573Z,16.90
2022-09-16T08:04:43.569Z,18.00
2022-09-16T08:05:43.549Z,14.60
2022-09-16T08:06:43.531Z,17.40
2022-09-16T08:07:43.506Z,16.40
2022-09-16T08:08:43.494Z,16.50
2022-09-16T08:09:48.587Z,16.30
2022-09-16T08:10:44.479Z,17.90
2022-09-16T08:11:43.475Z,15.90
2022-09-16T08:12:43.450Z,15.70
2022-09-16T08:13:43.628Z,14.30
2022-09-16T08:14:43.428Z,14.70
2022-09-16T08:15:43.443Z,14.40
2022-09-16T08:16:43.511Z,16.70
2022-09-16T08:17:43.529Z,19.40
2022-09-16T08:18:43.417Z,18.90
2022-09-16T08:19:43.371Z,18.40
2022-09-16T08:20:43.367Z,17.80
2022-09-16T08:21:43.374Z,16.30
2022-09-16T08:22:43.347Z,16.90
2022-09-16T08:23:43.346Z,14.50
2022-09-16T08:24:43.315Z,18.40
2022-09-16T08:25:43.309Z,18.10
2022-09-16T08:26:43.360Z,14.90
2022-09-16T08:27:43.486Z,16.00
2022-09-16T08:29:07.282Z,15.50
2022-09-16T08:29:44.263Z,15.80
2022-09-16T08:30:43.293Z,15.20
2022-09-16T08:31:43.287Z,16.80
2022-09-16T08:32:43.252Z,15.70
2022-09-16T08:33:43.356Z,14.00
2022-09-16T08:34:43.224Z,13.60
2022-09-16T08:35:43.192Z,14.80
2022-09-16T08:36:43.184Z,15.00
2022-09-16T08:37:45.898Z,13.80
2022-09-16T08:38:44.218Z,14.10
2022-09-16T08:39:43.163Z,13.90
2022-09-16T08:40:43.149Z,13.80
2022-09-16T08:41:43.195Z,13.50
2022-09-16T08:42:43.120Z,13.10
2022-09-16T08:43:43.305Z,12.50
2022-09-16T08:44:43.123Z,13.90
2022-09-16T08:45:43.162Z,13.40
2022-09-16T08:46:43.069Z,90.70
2022-09-16T08:47:43.063Z,63.20
2022-09-16T08:48:43.056Z,38.80
2022-09-16T08:49:45.754Z,25.20
2022-09-16T08:50:43.059Z,22.80
2022-09-16T08:51:43.035Z,16.40
2022-09-16T08:52:43.038Z,12.50
2022-09-16T08:53:42.989Z,13.10
2022-09-16T08:54:43.005Z,13.60
2022-09-16T08:55:43.014Z,14.40
2022-09-16T08:56:44.992Z,12.90
2022-09-16T08:57:42.971Z,12.30
2022-09-16T08:58:42.972Z,13.40
2022-09-16T08:59:43.439Z,12.60
2022-09-16T09:00:43.017Z,13.90
2022-09-16T09:01:43.290Z,12.20
2022-09-16T09:02:42.940Z,11.50
2022-09-16T09:03:42.877Z,11.70
2022-09-16T09:04:42.867Z,12.90
2022-09-16T09:05:42.995Z,12.30
2022-09-16T09:06:42.871Z,17.00
2022-09-16T09:07:42.842Z,12.30
2022-09-16T09:08:42.845Z,13.00
2022-09-16T09:09:42.862Z,15.90
2022-09-16T09:10:42.817Z,19.40
2022-09-16T09:11:42.814Z,12.10
2022-09-16T09:12:43.248Z,12.90
2022-09-16T09:13:42.786Z,13.10
2022-09-16T09:14:42.751Z,12.10
2022-09-16T09:15:42.742Z,17.30
2022-09-16T09:16:42.868Z,16.30
2022-09-16T09:17:49.393Z,13.60
2022-09-16T09:18:43.761Z,14.30
2022-09-16T09:19:42.704Z,16.00
2022-09-16T09:20:42.682Z,11.10
2022-09-16T09:21:42.826Z,24.50
2022-09-16T09:22:44.670Z,13.40
2022-09-16T09:23:42.686Z,11.90
2022-09-16T09:24:42.654Z,12.80
2022-09-16T09:25:42.668Z,11.00
2022-09-16T09:26:42.617Z,12.50
2022-09-16T09:27:42.619Z,11.20
2022-09-16T09:28:42.618Z,11.80
2022-09-16T09:29:42.588Z,15.30
2022-09-16T09:30:42.591Z,12.90
2022-09-16T09:31:43.502Z,11.60
2022-09-16T09:32:49.347Z,19.00
2022-09-16T09:33:46.679Z,19.70
2022-09-16T09:34:42.609Z,48.60
2022-09-16T09:35:42.538Z,34.90
2022-09-16T09:36:42.521Z,30.10
2022-09-16T09:37:42.654Z,39.30
2022-09-16T09:38:42.481Z,46.80
2022-09-16T09:39:42.495Z,27.10
2022-09-16T09:40:42.495Z,43.30
2022-09-16T09:41:42.464Z,28.40
2022-09-16T09:42:42.472Z,33.30
2022-09-16T09:43:42.428Z,23.60
2022-09-16T09:44:42.428Z,43.10
2022-09-16T09:45:42.474Z,44.20
2022-09-16T09:46:42.416Z,31.40
2022-09-16T09:47:42.396Z,32.50
2022-09-16T09:48:47.523Z,25.50
2022-09-16T09:49:42.360Z,60.90
2022-09-16T09:50:42.362Z,51.00
2022-09-16T09:51:42.356Z,38.60
2022-09-16T09:52:42.339Z,32.10
2022-09-16T09:53:42.478Z,58.00
2022-09-16T09:54:42.299Z,23.80
2022-09-16T09:55:42.294Z,25.50
2022-09-16T09:56:42.358Z,36.60
2022-09-16T09:57:42.295Z,21.60
2022-09-16T09:58:42.270Z,47.50
2022-09-16T09:59:42.252Z,28.90
2022-09-16T10:00:42.288Z,20.60
2022-09-16T10:01:42.297Z,25.10
2022-09-16T10:02:44.977Z,43.30
2022-09-16T10:03:43.225Z,43.30
2022-09-16T10:04:42.196Z,28.60
2022-09-16T10:05:42.205Z,48.50
2022-09-16T10:06:42.165Z,53.60
2022-09-16T10:07:42.165Z,32.70
2022-09-16T10:08:42.183Z,36.70
2022-09-16T10:09:42.262Z,92.80
2022-09-16T10:10:42.143Z,27.00
2022-09-16T10:11:42.109Z,115.00
2022-09-16T10:12:42.150Z,75.40
2022-09-16T10:13:42.101Z,24.00
2022-09-16T10:14:42.078Z,235.10
2022-09-16T10:15:42.096Z,97.80
2022-09-16T10:16:42.103Z,51.60
2022-09-16T10:17:42.041Z,19.90
2022-09-16T10:18:42.029Z,34.60
2022-09-16T10:19:42.043Z,341.00
2022-09-16T10:20:42.011Z,56.70
2022-09-16T10:21:42.019Z,165.40
2022-09-16T10:22:41.985Z,87.80
2022-09-16T10:23:41.975Z,181.20
2022-09-16T10:24:41.977Z,207.60
2022-09-16T10:25:42.081Z,185.60
2022-09-16T10:26:41.953Z,122.30
2022-09-16T10:27:41.956Z,97.90
2022-09-16T10:28:41.954Z,83.50
2022-09-16T10:29:41.912Z,137.30
2022-09-16T10:30:41.905Z,141.30
2022-09-16T10:31:41.965Z,122.60
2022-09-16T10:32:41.890Z,80.50
2022-09-16T10:33:41.860Z,156.70
2022-09-16T10:34:41.891Z,130.70
2022-09-16T10:35:41.851Z,225.90
2022-09-16T10:36:41.845Z,98.10
2022-09-16T10:37:41.824Z,104.70
2022-09-16T10:38:41.824Z,89.90
2022-09-16T10:39:41.793Z,48.90
2022-09-16T10:40:41.787Z,161.90
2022-09-16T10:41:41.928Z,70.50
2022-09-16T10:42:41.789Z,84.60
2022-09-16T10:43:41.793Z,66.70
2022-09-16T10:44:41.734Z,165.80
2022-09-16T10:45:41.729Z,252.50
2022-09-16T10:46:41.800Z,247.20
2022-09-16T10:47:41.720Z,217.50
2022-09-16T10:48:41.694Z,61.80
2022-09-16T10:49:41.687Z,67.70
2022-09-16T10:50:41.668Z,109.50
2022-09-16T10:51:41.661Z,57.60
2022-09-16T10:52:41.668Z,60.20
2022-09-16T10:53:44.469Z,17.10
2022-09-16T10:54:41.633Z,52.10
2022-09-16T10:55:41.629Z,20.20
2022-09-16T10:56:41.636Z,16.90
2022-09-16T10:57:41.719Z,14.40
2022-09-16T10:58:41.586Z,9.70
2022-09-16T10:59:42.500Z,10.30
2022-09-16T11:00:45.621Z,10.20
2022-09-16T11:01:44.588Z,9.60
2022-09-16T11:02:41.534Z,9.40
2022-09-16T11:03:41.523Z,9.70
2022-09-16T11:04:41.522Z,8.70
2022-09-16T11:05:41.526Z,8.90
2022-09-16T11:06:41.509Z,8.20
2022-09-16T11:07:41.482Z,6.70
2022-09-16T11:08:41.463Z,9.60
2022-09-16T11:09:41.476Z,15.50
2022-09-16T11:10:41.461Z,7.80
2022-09-16T11:11:41.442Z,8.30
2022-09-16T11:12:41.432Z,7.60
2022-09-16T11:13:41.537Z,8.70
2022-09-16T11:14:41.404Z,8.70
2022-09-16T11:15:41.404Z,12.30
2022-09-16T11:16:41.443Z,11.50
2022-09-16T11:17:41.406Z,9.20
2022-09-16T11:18:41.375Z,11.30
2022-09-16T11:19:41.340Z,10.20
2022-09-16T11:20:41.348Z,12.60
2022-09-16T11:21:41.321Z,12.80
2022-09-16T11:22:41.326Z,11.50
2022-09-16T11:23:41.388Z,13.10
2022-09-16T11:24:41.317Z,10.70
2022-09-16T11:25:41.273Z,12.90
2022-09-16T11:26:41.281Z,10.80
2022-09-16T11:27:41.267Z,10.40
2022-09-16T11:28:41.256Z,10.30
2022-09-16T11:29:41.358Z,10.90
2022-09-16T11:30:41.232Z,11.30
2022-09-16T11:31:41.335Z,11.60
2022-09-16T11:32:41.349Z,15.60
2022-09-16T11:33:41.191Z,9.50
2022-09-16T11:34:41.210Z,9.60
2022-09-16T11:35:41.186Z,12.90
2022-09-16T11:36:41.160Z,11.60
2022-09-16T11:37:41.141Z,11.10
2022-09-16T11:38:43.885Z,12.80
2022-09-16T11:39:42.171Z,13.40
2022-09-16T11:40:41.158Z,9.80
2022-09-16T11:41:41.100Z,11.70
2022-09-16T11:42:41.083Z,9.80
2022-09-16T11:43:41.074Z,10.30
2022-09-16T11:44:41.065Z,9.70
2022-09-16T11:45:41.220Z,12.20
2022-09-16T11:46:41.103Z,10.60
2022-09-16T11:47:41.102Z,11.50
2022-09-16T11:48:41.024Z,16.20
2022-09-16T11:49:41.022Z,12.30
2022-09-16T11:50:41.021Z,11.80
2022-09-16T11:51:41.001Z,11.00
2022-09-16T11:52:40.999Z,10.20
2022-09-16T11:53:43.730Z,11.40
2022-09-16T11:54:40.957Z,11.60
2022-09-16T11:55:40.963Z,11.80
2022-09-16T11:56:40.934Z,11.40
2022-09-16T11:57:40.931Z,11.80
2022-09-16T11:58:40.905Z,11.20
2022-09-16T11:59:40.919Z,10.10
2022-09-16T12:00:40.896Z,9.70
2022-09-16T12:01:41.064Z,25.00
2022-09-16T12:02:40.948Z,76.30
2022-09-16T12:03:40.848Z,75.20
2022-09-16T12:04:40.836Z,33.80
2022-09-16T12:05:40.827Z,17.10
2022-09-16T12:06:40.829Z,11.70
2022-09-16T12:07:40.835Z,11.20
2022-09-16T12:08:40.801Z,12.00
2022-09-16T12:09:40.782Z,10.90
2022-09-16T12:10:40.787Z,11.60
2022-09-16T12:11:40.762Z,13.40
2022-09-16T12:12:40.774Z,11.70
2022-09-16T12:13:40.763Z,13.40
2022-09-16T12:14:40.749Z,12.40
2022-09-16T12:15:40.712Z,10.40
2022-09-16T12:16:40.727Z,8.70
2022-09-16T12:17:40.836Z,8.10
2022-09-16T12:18:40.693Z,11.00
2022-09-16T12:19:40.683Z,9.30
2022-09-16T12:20:40.660Z,8.80
2022-09-16T12:21:40.646Z,8.40
2022-09-16T12:22:40.641Z,8.50
2022-09-16T12:23:40.657Z,7.90
2022-09-16T12:24:40.620Z,7.50
2022-09-16T12:25:45.460Z,8.40
2022-09-16T12:26:41.614Z,7.20
2022-09-16T12:27:40.595Z,6.60
2022-09-16T12:28:40.599Z,7.20
2022-09-16T12:29:40.562Z,7.60
2022-09-16T12:30:40.562Z,6.30
2022-09-16T12:31:40.581Z,6.40
2022-09-16T12:32:40.564Z,6.00
2022-09-16T12:33:40.665Z,5.50
2022-09-16T12:34:40.523Z,5.00
2022-09-16T12:35:40.509Z,4.90
2022-09-16T12:36:40.522Z,6.00
2022-09-16T12:37:40.477Z,5.20
2022-09-16T12:38:40.518Z,7.30
2022-09-16T12:39:40.476Z,6.50
2022-09-16T12:40:40.454Z,6.50
2022-09-16T12:41:40.459Z,6.60
2022-09-16T12:42:44.545Z,4.50
2022-09-16T12:43:41.404Z,5.60
2022-09-16T12:44:40.441Z,6.10
2022-09-16T12:45:40.399Z,5.00
2022-09-16T12:46:40.420Z,4.50
2022-09-16T12:47:40.400Z,6.40
2022-09-16T12:48:40.349Z,5.70
2022-09-16T12:49:40.460Z,10.00
2022-09-16T12:50:40.328Z,4.90
2022-09-16T12:51:40.323Z,5.40
2022-09-16T12:52:40.334Z,5.10
2022-09-16T12:53:40.336Z,9.30
2022-09-16T12:55:04.066Z,10.10